Time;durP1;ratioP1;P1;durP2;ratioP2;P2;SDS_P1;SDS_P2;PMS_P1;PMS_P2;Temp;Humidity;BMP_temperature;BMP_pressure;BME280_temperature;BME280_humidity;BME280_pressure;Samples;Min_cycle;Max_cycle;Signal;HPM_P1;HPM_P2
2022/09/02 00:00:59;;;;;;;2.78;0.70;;;14.80;99.90;;;;;;5079887;27;20042;-93
2022/09/02 00:03:32;;;;;;;1.20;0.70;;;15.20;99.90;;;;;;5094497;27;20039;-93
2022/09/02 00:05:58;;;;;;;;;;;14.70;99.90;;;;;;5094293;27;20078;-93
2022/09/02 00:08:24;;;;;;;1.92;0.98;;;14.60;99.90;;;;;;5094134;27;20013;-93
2022/09/02 00:10:50;;;;;;;1.77;0.50;;;14.60;99.90;;;;;;5110853;27;20039;-93
2022/09/02 00:13:18;;;;;;;3.88;0.95;;;14.60;99.90;;;;;;5094861;27;20497;-92
2022/09/02 00:15:44;;;;;;;1.42;0.70;;;14.60;99.90;;;;;;5110173;27;20043;-93
2022/09/02 00:18:11;;;;;;;1.48;0.70;;;14.50;99.90;;;;;;5095255;27;20077;-93
2022/09/02 00:20:39;;;;;;;2.45;1.05;;;14.50;99.90;;;;;;5093328;27;20073;-93
2022/09/02 00:23:06;;;;;;;3.55;0.90;;;14.50;99.90;;;;;;5077707;27;20410;-92
2022/09/02 00:25:33;;;;;;;2.45;1.13;;;14.40;99.90;;;;;;5077056;27;20039;-93
2022/09/02 00:27:58;;;;;;;1.60;0.80;;;14.40;99.90;;;;;;5093255;27;20081;-93
2022/09/02 00:30:27;;;;;;;1.13;0.75;;;14.40;99.90;;;;;;5076281;27;20083;-92
2022/09/02 00:32:53;;;;;;;1.23;0.90;;;14.40;99.90;;;;;;5109224;27;20039;-92
2022/09/02 00:35:19;;;;;;;2.33;0.88;;;14.30;99.90;;;;;;5077544;27;20035;-93
2022/09/02 00:37:45;;;;;;;3.03;0.80;;;14.30;99.90;;;;;;5092908;27;20040;-92
2022/09/02 00:40:12;;;;;;;2.97;0.75;;;14.30;99.90;;;;;;5093849;27;20043;-93
2022/09/02 00:42:38;;;;;;;3.88;0.80;;;14.30;99.90;;;;;;5076288;27;20458;-94
2022/09/02 00:45:07;;;;;;;7.60;0.70;;;14.20;99.90;;;;;;5058975;27;20130;-93
2022/09/02 00:47:33;;;;;;;4.10;0.68;;;14.20;99.90;;;;;;5077092;28;20195;-93
2022/09/02 00:49:59;;;;;;;2.92;1.00;;;14.10;99.90;;;;;;5092567;27;20039;-92
2022/09/02 00:52:43;;;;;;;1.67;0.93;;;14.20;99.90;;;;;;5111696;27;20078;-93
2022/09/02 00:55:30;;;;;;;3.85;1.05;;;14.20;99.90;;;;;;5110061;27;20043;-92
2022/09/02 00:58:03;;;;;;;1.83;1.15;;;14.10;99.90;;;;;;5092883;27;20065;-91
2022/09/02 01:00:33;;;;;;;2.00;1.00;;;14.10;99.90;;;;;;5111089;27;20092;-93
2022/09/02 01:03:02;;;;;;;2.60;1.00;;;14.10;99.90;;;;;;5109995;27;20043;-92
2022/09/02 01:05:32;;;;;;;3.28;0.98;;;14.00;99.90;;;;;;5111562;27;20050;-92
2022/09/02 01:07:59;;;;;;;2.33;1.00;;;14.00;99.90;;;;;;5111716;28;20084;-92
2022/09/02 01:10:33;;;;;;;4.50;1.02;;;14.00;99.90;;;;;;5077689;28;20039;-93
2022/09/02 01:13:06;;;;;;;2.42;1.00;;;13.90;99.90;;;;;;5093992;28;20047;-91
2022/09/02 01:15:35;;;;;;;;;;;13.90;99.90;;;;;;5093469;28;20054;-91
2022/09/02 01:18:02;;;;;;;2.58;1.55;;;13.90;99.90;;;;;;5110944;28;19920;-92
2022/09/02 01:20:27;;;;;;;1.67;1.10;;;13.90;99.90;;;;;;5093787;28;20039;-93
2022/09/02 01:22:54;;;;;;;4.68;1.70;;;13.90;99.90;;;;;;5060759;28;20051;-92
2022/09/02 01:25:27;;;;;;;3.38;1.17;;;14.00;99.90;;;;;;5093927;28;20065;-92
2022/09/02 01:27:52;;;;;;;;;;;13.90;99.90;;;;;;5092988;28;20046;-92
2022/09/02 01:30:22;;;;;;;2.38;1.13;;;13.30;99.90;;;;;;5076514;28;19919;-93
2022/09/02 01:32:49;;;;;;;1.45;1.20;;;13.70;99.90;;;;;;5092354;28;20072;-92
2022/09/02 01:35:16;;;;;;;1.30;0.90;;;13.80;99.90;;;;;;5110651;28;20066;-93
2022/09/02 01:37:43;;;;;;;1.45;0.85;;;14.10;99.90;;;;;;5092598;28;20078;-93
2022/09/02 01:40:12;;;;;;;1.50;0.85;;;13.70;99.90;;;;;;5093052;28;20040;-92
2022/09/02 01:42:39;;;;;;;3.42;1.10;;;14.00;99.90;;;;;;5092996;28;20049;-91
2022/09/02 01:45:05;;;;;;;1.17;1.00;;;13.70;99.90;;;;;;5109025;28;20047;-93
2022/09/02 01:47:31;;;;;;;1.85;0.70;;;13.70;99.90;;;;;;5092594;28;20069;-93
2022/09/02 01:49:58;;;;;;;2.03;1.17;;;13.60;99.90;;;;;;5092595;28;20099;-93
2022/09/02 01:52:27;;;;;;;4.80;0.80;;;13.60;99.90;;;;;;5060577;28;20051;-92
2022/09/02 01:54:53;;;;;;;1.55;1.05;;;13.80;99.90;;;;;;5091840;28;20095;-92
2022/09/02 01:57:19;;;;;;;1.88;1.10;;;13.60;99.90;;;;;;5093259;28;20138;-91
2022/09/02 01:59:45;;;;;;;2.83;0.98;;;13.50;99.90;;;;;;5092879;28;20519;-92
2022/09/02 02:02:12;;;;;;;6.65;1.10;;;13.50;99.90;;;;;;5091622;28;20039;-92
2022/09/02 02:04:38;;;;;;;2.53;1.25;;;13.40;99.90;;;;;;5076416;28;20075;-93
2022/09/02 02:07:05;;;;;;;2.72;1.00;;;13.40;99.90;;;;;;5091992;28;20059;-92
2022/09/02 02:09:30;;;;;;;2.25;1.02;;;13.40;99.90;;;;;;5093233;28;20083;-92
2022/09/02 02:11:56;;;;;;;4.63;0.80;;;13.30;99.90;;;;;;5092584;28;20039;-92
2022/09/02 02:14:22;;;;;;;2.63;0.90;;;13.30;99.90;;;;;;5095335;28;20035;-90
2022/09/02 02:16:49;;;;;;;2.53;0.90;;;13.30;99.90;;;;;;5100605;28;20039;-92
2022/09/02 02:19:14;;;;;;;1.95;0.93;;;13.30;99.90;;;;;;5083008;28;20508;-94
2022/09/02 02:21:41;;;;;;;3.55;0.98;;;13.20;99.90;;;;;;5117272;27;20079;-92
2022/09/02 02:24:08;;;;;;;2.25;1.20;;;13.20;99.90;;;;;;5118380;27;20043;-92
2022/09/02 02:26:35;;;;;;;1.88;0.95;;;13.20;99.90;;;;;;5119801;27;20503;-92
2022/09/02 02:29:00;;;;;;;1.45;1.17;;;13.50;99.90;;;;;;5120831;27;20050;-92
2022/09/02 02:31:26;;;;;;;1.80;0.88;;;13.10;99.90;;;;;;5104835;27;20039;-92
2022/09/02 02:33:52;;;;;;;1.80;1.35;;;13.20;99.90;;;;;;5103165;27;20039;-92
2022/09/02 02:36:18;;;;;;;3.47;1.10;;;13.40;99.90;;;;;;5098673;27;20404;-92
2022/09/02 02:38:45;;;;;;;2.03;1.15;;;13.10;99.90;;;;;;5096538;27;20031;-92
2022/09/02 02:41:12;;;;;;;2.20;1.08;;;13.10;99.90;;;;;;5095885;27;20118;-92
2022/09/02 02:43:39;;;;;;;1.95;1.30;;;13.00;99.90;;;;;;5113163;27;20134;-93
2022/09/02 02:46:05;;;;;;;8.25;0.88;;;13.00;99.90;;;;;;5112032;27;20039;-92
2022/09/02 02:48:33;;;;;;;2.42;1.00;;;13.00;99.90;;;;;;5079132;27;20035;-92
2022/09/02 02:50:59;;;;;;;1.77;1.02;;;13.50;99.90;;;;;;5078897;27;20039;-92
2022/09/02 02:53:28;;;;;;;1.60;0.98;;;13.30;99.90;;;;;;5078334;27;20046;-92
2022/09/02 02:55:54;;;;;;;2.83;0.95;;;12.90;99.90;;;;;;5062672;27;20059;-92
2022/09/02 02:58:20;;;;;;;1.60;0.98;;;12.90;99.90;;;;;;5095002;27;20085;-93
2022/09/02 03:00:47;;;;;;;3.22;1.20;;;13.00;99.90;;;;;;5096061;27;20071;-92
2022/09/02 03:03:18;;;;;;;2.25;1.08;;;13.00;99.90;;;;;;5111701;27;20049;-93
2022/09/02 03:05:44;;;;;;;2.90;1.23;;;12.90;99.90;;;;;;5080220;27;20050;-92
2022/09/02 03:08:11;;;;;;;1.60;1.15;;;13.20;99.90;;;;;;5095255;27;20043;-93
2022/09/02 03:10:40;;;;;;;3.05;1.02;;;13.00;99.90;;;;;;5095264;27;20047;-92
2022/09/02 03:13:08;;;;;;;1.23;0.88;;;12.70;99.90;;;;;;5099874;27;20464;-91
2022/09/02 03:15:35;;;;;;;2.35;1.05;;;12.70;99.90;;;;;;5100694;27;20490;-93
2022/09/02 03:18:02;;;;;;;1.70;1.38;;;12.60;99.90;;;;;;5069090;27;20046;-92
2022/09/02 03:20:27;;;;;;;4.72;1.23;;;12.60;99.90;;;;;;5089553;27;20043;-91
2022/09/02 03:22:55;;;;;;;4.43;1.30;;;12.60;99.90;;;;;;5092338;27;20039;-91
2022/09/02 03:25:22;;;;;;;1.83;1.27;;;12.80;99.90;;;;;;5106619;27;20050;-92
2022/09/02 03:27:48;;;;;;;2.25;1.58;;;12.50;99.90;;;;;;5086408;27;20401;-92
2022/09/02 03:30:19;;;;;;;5.80;1.52;;;12.50;99.90;;;;;;5083920;27;20039;-93
2022/09/02 03:32:44;;;;;;;4.28;1.40;;;12.50;99.90;;;;;;5100837;27;20031;-92
2022/09/02 03:35:12;;;;;;;2.90;1.60;;;12.50;99.90;;;;;;5066978;27;20067;-92
2022/09/02 03:37:38;;;;;;;1.70;1.40;;;12.50;99.90;;;;;;5101112;27;20043;-91
2022/09/02 03:40:13;;;;;;;1.95;1.30;;;13.20;99.90;;;;;;5066885;27;20091;-90
2022/09/02 03:42:39;;;;;;;2.50;1.27;;;12.40;99.90;;;;;;5100670;27;20042;-92
2022/09/02 03:45:07;;;;;;;2.00;1.33;;;12.40;99.90;;;;;;5102894;27;20487;-91
2022/09/02 03:47:33;;;;;;;2.13;1.50;;;12.40;99.90;;;;;;5104350;27;20054;-92
2022/09/02 03:49:59;;;;;;;2.92;1.10;;;12.40;99.90;;;;;;5123009;27;20047;-92
2022/09/02 03:52:26;;;;;;;2.20;1.55;;;13.40;99.90;;;;;;5107522;27;20039;-92
2022/09/02 03:54:52;;;;;;;3.60;1.45;;;13.70;99.90;;;;;;5088973;27;20054;-91
2022/09/02 03:57:19;;;;;;;3.25;1.40;;;13.40;99.90;;;;;;5088686;27;20078;-92
2022/09/02 03:59:45;;;;;;;2.85;1.40;;;12.90;99.90;;;;;;5088801;27;20039;-93
2022/09/02 04:02:11;;;;;;;4.85;1.30;;;13.40;99.90;;;;;;5104570;27;20043;-92
2022/09/02 04:04:37;;;;;;;2.25;1.50;;;12.20;99.90;;;;;;5079263;27;20042;-89
2022/09/02 04:07:03;;;;;;;2.45;1.50;;;12.20;99.90;;;;;;5095497;27;20451;-92
2022/09/02 04:09:28;;;;;;;1.63;1.50;;;12.20;99.90;;;;;;5078945;27;20118;-91
2022/09/02 04:11:54;;;;;;;4.18;1.20;;;13.00;99.90;;;;;;5062322;27;20437;-92
2022/09/02 04:14:20;;;;;;;3.05;1.20;;;12.90;99.90;;;;;;5078235;27;20039;-96
2022/09/02 04:16:46;;;;;;;2.13;1.33;;;12.50;99.90;;;;;;5079580;27;20039;-93
2022/09/02 04:19:12;;;;;;;5.93;1.40;;;12.10;99.90;;;;;;5078072;27;20111;-94
2022/09/02 04:21:39;;;;;;;2.72;1.33;;;12.00;99.90;;;;;;5076744;27;20050;-90
2022/09/02 04:24:08;;;;;;;2.03;1.23;;;12.50;99.90;;;;;;5110615;27;20130;-92
2022/09/02 04:26:34;;;;;;;1.08;0.80;;;12.00;99.90;;;;;;5076824;27;20054;-92
2022/09/02 04:29:00;;;;;;;1.48;1.20;;;12.00;99.90;;;;;;5059673;27;20089;-93
2022/09/02 04:31:29;;;;;;;1.58;1.02;;;12.00;99.90;;;;;;5076798;27;20042;-92
2022/09/02 04:33:55;;;;;;;4.03;1.48;;;12.70;99.90;;;;;;5094133;27;20031;-92
2022/09/02 04:36:22;;;;;;;2.45;1.30;;;12.70;99.90;;;;;;5076956;27;20039;-92
2022/09/02 04:38:48;;;;;;;3.30;1.13;;;12.90;99.90;;;;;;5075785;27;20482;-89
2022/09/02 04:41:21;;;;;;;2.00;1.40;;;12.50;99.90;;;;;;5092699;27;20035;-92
2022/09/02 04:43:48;;;;;;;3.47;1.25;;;11.90;99.90;;;;;;5110175;27;20070;-90
2022/09/02 04:46:17;;;;;;;1.77;1.10;;;11.90;99.90;;;;;;5109389;27;20050;-92
2022/09/02 04:48:43;;;;;;;3.28;0.80;;;12.20;99.90;;;;;;5092960;27;20056;-90
2022/09/02 04:51:12;;;;;;;1.50;1.10;;;13.10;99.90;;;;;;5092836;27;20512;-91
2022/09/02 04:53:39;;;;;;;2.15;1.00;;;11.80;99.90;;;;;;5092823;27;20035;-91
2022/09/02 04:56:10;;;;;;;1.70;1.30;;;11.80;99.90;;;;;;5110140;27;20051;-92
2022/09/02 04:58:37;;;;;;;1.73;1.35;;;12.10;99.90;;;;;;5109604;27;20042;-93
2022/09/02 05:01:14;;;;;;;1.77;1.33;;;12.20;99.90;;;;;;5075611;28;20031;-87
2022/09/02 05:03:41;;;;;;;3.35;1.23;;;11.80;99.90;;;;;;5092314;28;20054;-89
2022/09/02 05:06:13;;;;;;;4.55;1.48;;;11.80;99.90;;;;;;5091683;27;20078;-88
2022/09/02 05:08:40;;;;;;;1.67;1.17;;;12.10;99.90;;;;;;5091698;27;20046;-89
2022/09/02 05:11:12;;;;;;;1.95;1.77;;;12.90;99.90;;;;;;5091439;28;20050;-89
2022/09/02 05:13:39;;;;;;;5.45;1.23;;;13.00;99.90;;;;;;5108509;28;20039;-88
2022/09/02 05:16:05;;;;;;;2.17;1.10;;;12.10;99.90;;;;;;5108618;28;20517;-88
2022/09/02 05:18:31;;;;;;;3.28;1.30;;;11.80;99.90;;;;;;5109014;28;20046;-92
2022/09/02 05:20:56;;;;;;;5.68;1.20;;;11.80;99.90;;;;;;5108945;28;20066;-91
2022/09/02 05:23:22;;;;;;;5.85;1.33;;;11.80;99.90;;;;;;5092550;28;20494;-91
2022/09/02 05:25:48;;;;;;;1.73;1.15;;;11.90;99.90;;;;;;5075478;28;20066;-91
2022/09/02 05:28:14;;;;;;;13.05;1.48;;;11.90;99.90;;;;;;5074889;28;20035;-86
2022/09/02 05:30:41;;;;;;;6.03;1.30;;;11.90;99.90;;;;;;5092446;28;20039;-91
2022/09/02 05:33:08;;;;;;;3.10;1.60;;;12.00;99.90;;;;;;5109028;28;20046;-88
2022/09/02 05:35:38;;;;;;;2.58;1.35;;;12.00;99.90;;;;;;5092075;28;20559;-89
2022/09/02 05:38:03;;;;;;;2.33;1.00;;;12.40;99.90;;;;;;5092085;28;20043;-87
2022/09/02 05:40:29;;;;;;;2.08;1.25;;;12.10;99.90;;;;;;5108238;28;20416;-86
2022/09/02 05:42:55;;;;;;;1.25;1.15;;;13.50;99.90;;;;;;5075120;28;20098;-84
2022/09/02 05:45:22;;;;;;;7.45;1.50;;;11.50;99.90;;;;;;5109086;28;20100;-91
2022/09/02 05:47:48;;;;;;;1.85;1.13;;;12.20;99.90;;;;;;5092673;28;20576;-90
2022/09/02 05:50:15;;;;;;;2.40;1.40;;;12.80;99.90;;;;;;5095015;28;20043;-92
2022/09/02 05:52:41;;;;;;;6.00;1.25;;;12.30;99.90;;;;;;5091943;28;20390;-84
2022/09/02 05:55:08;;;;;;;2.13;1.40;;;12.40;99.90;;;;;;5074821;28;20574;-85
2022/09/02 05:57:33;;;;;;;3.63;1.30;;;12.50;99.90;;;;;;5109393;27;20040;-83
2022/09/02 05:59:59;;;;;;;7.22;1.42;;;12.50;99.90;;;;;;5111802;27;20095;-83
2022/09/02 06:02:25;;;;;;;1.95;1.05;;;12.60;99.90;;;;;;5111882;27;20068;-83
2022/09/02 06:04:53;;;;;;;7.63;1.10;;;12.70;99.90;;;;;;5111572;27;20562;-84
2022/09/02 06:07:22;;;;;;;3.97;1.13;;;12.80;99.90;;;;;;5094749;27;20039;-84
2022/09/02 06:09:48;;;;;;;3.70;1.20;;;12.90;99.90;;;;;;5111384;27;20080;-84
2022/09/02 06:12:17;;;;;;;5.47;1.23;;;12.90;99.90;;;;;;5094775;27;20039;-83
2022/09/02 06:14:43;;;;;;;3.55;1.45;;;13.00;99.90;;;;;;5111903;27;20404;-83
2022/09/02 06:17:09;;;;;;;1.85;1.42;;;13.10;99.90;;;;;;5111376;27;20130;-83
2022/09/02 06:19:35;;;;;;;2.63;1.27;;;13.20;99.90;;;;;;5111775;27;20436;-84
2022/09/02 06:22:02;;;;;;;2.72;1.10;;;13.30;99.90;;;;;;5111002;27;20044;-84
2022/09/02 06:24:29;;;;;;;2.30;1.27;;;13.40;99.90;;;;;;5095338;27;20436;-84
2022/09/02 06:26:55;;;;;;;2.10;0.98;;;13.50;99.90;;;;;;5111313;27;20096;-84
2022/09/02 06:29:23;;;;;;;1.00;0.90;;;13.60;99.90;;;;;;5111335;27;20043;-84
2022/09/02 06:31:50;;;;;;;4.18;1.20;;;13.70;99.90;;;;;;5094227;27;20039;-84
2022/09/02 06:34:19;;;;;;;3.85;1.98;;;13.80;99.90;;;;;;5110840;27;20047;-84
2022/09/02 06:36:47;;;;;;;2.30;1.23;;;13.90;99.90;;;;;;5094477;27;20414;-84
2022/09/02 06:39:15;;;;;;;2.97;1.20;;;14.00;99.90;;;;;;5111754;27;20035;-84
2022/09/02 06:41:42;;;;;;;2.03;1.00;;;14.10;99.90;;;;;;5111093;27;20047;-84
2022/09/02 06:44:10;;;;;;;3.78;1.30;;;14.20;99.90;;;;;;5094607;27;20043;-84
2022/09/02 06:46:42;;;;;;;3.78;1.10;;;14.20;99.90;;;;;;5111098;27;20053;-84
2022/09/02 06:49:09;;;;;;;9.32;1.88;;;14.40;99.90;;;;;;5111099;27;20545;-84
2022/09/02 06:51:40;;;;;;;8.32;1.30;;;15.20;99.90;;;;;;5110875;27;20047;-85
2022/09/02 06:54:09;;;;;;;4.32;0.98;;;15.20;99.90;;;;;;5111484;27;20410;-86
2022/09/02 06:56:35;;;;;;;4.28;1.25;;;15.20;99.90;;;;;;5111243;27;20043;-86
2022/09/02 06:59:01;;;;;;;3.30;1.30;;;14.90;99.90;;;;;;5114360;27;20122;-86
2022/09/02 07:01:29;;;;;;;2.90;1.27;;;15.00;99.90;;;;;;5100240;27;20035;-84
2022/09/02 07:06:47;;;;;;;1.52;0.80;;;15.20;99.90;;;;;;5098325;27;20877;-85
2022/09/02 07:09:17;;;;;;;6.45;2.17;;;15.30;99.90;;;;;;5110900;27;20184;-85
2022/09/02 07:11:46;;;;;;;3.03;1.13;;;15.40;99.90;;;;;;5096527;27;20474;-85
2022/09/02 07:14:14;;;;;;;3.80;0.88;;;15.50;99.90;;;;;;5114854;27;20409;-85
2022/09/02 07:16:44;;;;;;;2.40;0.98;;;15.60;99.90;;;;;;5097340;27;20490;-84
2022/09/02 07:19:11;;;;;;;4.20;1.13;;;15.70;99.90;;;;;;5114830;27;20039;-85
2022/09/02 07:21:37;;;;;;;3.13;1.08;;;15.80;99.90;;;;;;5098161;27;20501;-87
2022/09/02 07:24:02;;;;;;;3.05;1.10;;;15.90;99.90;;;;;;5114010;27;20043;-87
2022/09/02 07:26:29;;;;;;;2.38;1.02;;;16.00;99.90;;;;;;5078561;27;20575;-87
2022/09/02 07:28:55;;;;;;;3.20;1.63;;;16.10;99.90;;;;;;5113646;27;20494;-86
2022/09/02 07:31:22;;;;;;;4.15;1.00;;;16.20;99.90;;;;;;5114259;27;20043;-87
2022/09/02 07:33:48;;;;;;;6.28;1.08;;;16.80;99.90;;;;;;5099181;27;20125;-85
2022/09/02 07:36:14;;;;;;;3.17;1.05;;;16.40;99.90;;;;;;5117181;27;20043;-86
2022/09/02 07:38:41;;;;;;;1.80;1.30;;;16.50;99.90;;;;;;5096497;27;20055;-87
2022/09/02 07:41:08;;;;;;;4.47;1.02;;;16.60;99.90;;;;;;5096304;27;20043;-86
2022/09/02 07:43:36;;;;;;;2.72;1.05;;;16.70;99.90;;;;;;5096215;27;20811;-87
2022/09/02 07:46:03;;;;;;;1.08;0.80;;;16.80;99.90;;;;;;5116692;27;20062;-87
2022/09/02 07:48:29;;;;;;;4.60;1.10;;;16.90;99.90;;;;;;5099850;27;20451;-89
2022/09/02 07:50:56;;;;;;;4.60;1.65;;;17.00;99.90;;;;;;5088485;27;20255;-87
2022/09/02 07:53:22;;;;;;;2.72;1.17;;;17.10;99.90;;;;;;5112324;27;20036;-86
2022/09/02 07:55:47;;;;;;;2.42;1.17;;;17.20;99.90;;;;;;5114481;27;20046;-87
2022/09/02 07:58:15;;;;;;;6.25;1.02;;;17.40;99.90;;;;;;5117529;27;20035;-87
2022/09/02 08:00:42;;;;;;;1.95;0.80;;;17.50;99.90;;;;;;5132640;27;20035;-89
2022/09/02 08:03:10;;;;;;;1.08;0.60;;;18.00;99.90;;;;;;5129026;27;20562;-86
2022/09/02 08:05:36;;;;;;;8.35;1.02;;;17.70;99.90;;;;;;5133146;27;20047;-86
2022/09/02 08:08:03;;;;;;;7.18;0.90;;;17.70;99.90;;;;;;5130255;27;20052;-84
2022/09/02 08:10:29;;;;;;;2.38;1.00;;;18.20;99.90;;;;;;5114284;27;20130;-86
2022/09/02 08:12:59;;;;;;;7.82;1.13;;;18.00;99.90;;;;;;5116565;27;20046;-86
2022/09/02 08:15:27;;;;;;;2.63;1.20;;;18.20;99.90;;;;;;5134174;27;20104;-85
2022/09/02 08:17:54;;;;;;;4.70;0.77;;;18.40;99.90;;;;;;5132862;27;20118;-87
2022/09/02 08:20:19;;;;;;;2.63;1.00;;;18.50;99.90;;;;;;5098143;27;20057;-87
2022/09/02 08:22:45;;;;;;;4.32;1.17;;;18.50;99.90;;;;;;5130496;27;20075;-86
2022/09/02 08:25:11;;;;;;;1.95;1.10;;;18.70;99.90;;;;;;5131180;27;20084;-86
2022/09/02 08:27:37;;;;;;;3.67;1.00;;;18.80;99.90;;;;;;5130808;27;20035;-86
2022/09/02 08:30:04;;;;;;;5.63;0.95;;;18.90;99.90;;;;;;5095799;27;20043;-87
2022/09/02 08:32:31;;;;;;;6.88;1.05;;;18.90;99.90;;;;;;5120360;27;20043;-86
2022/09/02 08:35:01;;;;;;;2.55;1.20;;;19.00;99.90;;;;;;5110617;27;20592;-86
2022/09/02 08:37:27;;;;;;;1.67;0.85;;;19.00;99.90;;;;;;5110571;27;20122;-87
2022/09/02 08:39:53;;;;;;;5.35;1.20;;;19.20;99.90;;;;;;5093057;27;20042;-86
2022/09/02 08:42:23;;;;;;;1.60;1.02;;;19.20;99.90;;;;;;5077324;27;20047;-86
2022/09/02 08:44:54;;;;;;;4.15;1.05;;;19.30;99.90;;;;;;5096175;27;20547;-85
2022/09/02 08:47:25;;;;;;;3.72;0.90;;;19.50;99.90;;;;;;5109753;27;20152;-86
2022/09/02 08:49:59;;;;;;;2.67;1.15;;;19.70;99.90;;;;;;5110782;27;20469;-85
2022/09/02 08:52:49;;;;;;;2.72;1.25;;;19.70;99.90;;;;;;5111816;27;20184;-86
2022/09/02 08:55:24;;;;;;;2.78;0.80;;;19.90;99.90;;;;;;5111466;27;20051;-86
2022/09/02 08:57:50;;;;;;;2.00;0.70;;;20.00;99.90;;;;;;5109286;27;20051;-86
2022/09/02 09:00:16;;;;;;;3.80;0.90;;;20.10;99.90;;;;;;5109203;27;20077;-85
2022/09/02 09:03:03;;;;;;;8.27;0.95;;;20.20;99.90;;;;;;5109101;27;20051;-86
2022/09/02 09:05:48;;;;;;;5.03;2.05;;;20.30;99.90;;;;;;5108129;28;20054;-86
2022/09/02 09:08:37;;;;;;;4.30;2.20;;;20.30;99.90;;;;;;5091721;27;20039;-85
2022/09/02 09:11:24;;;;;;;4.05;1.00;;;20.50;99.90;;;;;;5108640;28;20035;-86
2022/09/02 09:13:56;;;;;;;3.58;1.08;;;20.60;99.90;;;;;;5108630;28;20465;-86
2022/09/02 09:16:33;;;;;;;1.15;1.00;;;20.60;99.90;;;;;;5108490;28;20172;-86
2022/09/02 09:19:22;;;;;;;4.32;1.00;;;20.70;99.90;;;;;;5108790;28;20093;-86
2022/09/02 09:21:48;;;;;;;2.38;0.90;;;20.80;99.90;;;;;;5078479;28;20375;-86
2022/09/02 09:24:34;;;;;;;8.73;1.17;;;20.90;99.90;;;;;;5091376;28;20043;-86
2022/09/02 09:27:01;;;;;;;2.33;0.82;;;21.00;99.90;;;;;;5108213;28;20440;-87
2022/09/02 09:29:32;;;;;;;4.50;0.82;;;21.20;99.90;;;;;;5075104;28;20082;-86
2022/09/02 09:31:59;;;;;;;3.45;1.15;;;21.40;99.90;;;;;;5109035;27;20043;-86
2022/09/02 09:34:51;;;;;;;1.30;0.70;;;21.60;99.80;;;;;;5112446;27;20402;-85
2022/09/02 09:37:43;;;;;;;4.90;0.90;;;21.90;98.00;;;;;;5095564;27;20035;-86
2022/09/02 09:40:20;;;;;;;2.90;0.65;;;22.10;96.50;;;;;;5112653;27;20436;-85
2022/09/02 09:43:04;;;;;;;2.67;0.70;;;22.20;96.40;;;;;;5112140;27;20134;-86
2022/09/02 09:45:36;;;;;;;5.50;0.85;;;22.10;96.10;;;;;;5095458;27;20032;-87
2022/09/02 09:48:32;;;;;;;1.85;0.70;;;22.20;96.50;;;;;;5112152;27;20144;-87
2022/09/02 09:50:58;;;;;;;2.42;0.93;;;22.20;94.90;;;;;;5095542;27;20078;-86
2022/09/02 09:53:27;;;;;;;1.52;0.80;;;22.30;95.90;;;;;;5112071;27;20406;-86
2022/09/02 09:55:52;;;;;;;2.13;1.02;;;22.30;94.70;;;;;;5111871;27;20047;-87
2022/09/02 09:58:20;;;;;;;2.92;1.00;;;22.30;94.40;;;;;;5112037;27;20054;-87
2022/09/02 10:00:46;;;;;;;4.03;0.70;;;22.40;93.90;;;;;;5095203;27;20469;-86
2022/09/02 10:03:21;;;;;;;2.15;0.70;;;22.40;93.70;;;;;;5112674;27;20050;-87
2022/09/02 10:05:52;;;;;;;1.95;1.10;;;22.60;92.50;;;;;;5112807;27;20078;-86
2022/09/02 10:08:22;;;;;;;5.70;0.65;;;22.70;92.90;;;;;;5095295;27;20489;-88
2022/09/02 10:11:20;;;;;;;4.95;0.95;;;22.80;92.80;;;;;;5095286;27;20036;-89
2022/09/02 10:13:46;;;;;;;3.60;0.80;;;22.90;90.40;;;;;;5092106;27;20112;-86
2022/09/02 10:16:30;;;;;;;4.10;1.20;;;23.00;92.10;;;;;;5111894;27;20078;-86
2022/09/02 10:19:04;;;;;;;4.00;0.80;;;23.10;82.80;;;;;;5111659;27;20051;-87
2022/09/02 10:21:59;;;;;;;6.15;1.30;;;23.10;87.40;;;;;;5094435;27;20054;-87
2022/09/02 10:24:25;;;;;;;2.20;0.77;;;23.10;84.10;;;;;;5094686;27;20047;-86
2022/09/02 10:26:55;;;;;;;7.28;0.70;;;23.20;85.10;;;;;;5094728;27;20379;-86
2022/09/02 10:29:34;;;;;;;2.53;0.70;;;23.30;84.80;;;;;;5111795;27;20454;-87
2022/09/02 10:32:19;;;;;;;4.35;0.73;;;23.40;81.80;;;;;;5094787;27;20425;-87
2022/09/02 10:35:05;;;;;;;2.80;0.90;;;23.40;81.10;;;;;;5110875;27;20562;-86
2022/09/02 10:37:50;;;;;;;1.80;0.80;;;23.50;75.90;;;;;;5111728;27;20085;-86
2022/09/02 10:40:45;;;;;;;2.40;0.68;;;23.50;79.20;;;;;;5111078;27;20051;-86
2022/09/02 10:43:38;;;;;;;7.28;0.70;;;23.60;80.40;;;;;;5107233;27;20114;-85
2022/09/02 10:46:07;;;;;;;6.22;0.82;;;23.70;75.90;;;;;;5111245;27;20513;-87
2022/09/02 10:48:38;;;;;;;1.58;0.77;;;23.70;77.30;;;;;;5110866;27;20069;-86
2022/09/02 10:51:16;;;;;;;4.53;0.90;;;23.70;76.00;;;;;;5093994;27;20126;-86
2022/09/02 10:53:58;;;;;;;2.67;0.77;;;23.80;72.00;;;;;;5110918;27;20039;-89
2022/09/02 10:56:43;;;;;;;0.95;0.60;;;23.80;73.50;;;;;;5094328;27;20049;-86
2022/09/02 10:59:17;;;;;;;3.40;0.93;;;23.90;73.50;;;;;;5093953;27;20058;-86
2022/09/02 11:01:57;;;;;;;3.20;0.77;;;24.00;74.80;;;;;;5111309;27;20088;-89
2022/09/02 11:04:44;;;;;;;5.70;0.90;;;24.10;73.80;;;;;;5096354;27;20050;-91
2022/09/02 11:07:16;;;;;;;2.63;0.93;;;24.20;74.60;;;;;;5098145;27;20087;-87
2022/09/02 11:09:51;;;;;;;2.55;0.70;;;24.40;75.00;;;;;;5094891;27;20515;-91
2022/09/02 11:12:26;;;;;;;4.45;1.08;;;24.40;73.10;;;;;;5112006;27;20178;-92
2022/09/02 11:15:25;;;;;;;2.55;1.00;;;24.50;71.90;;;;;;5095651;27;20083;-90
2022/09/02 11:17:54;;;;;;;3.60;0.63;;;24.60;68.60;;;;;;5110973;27;20077;-87
2022/09/02 11:20:35;;;;;;;3.13;0.80;;;24.60;71.50;;;;;;5093315;27;20043;-87
2022/09/02 11:23:35;;;;;;;3.33;0.50;;;24.70;67.30;;;;;;5110347;27;20138;-83
2022/09/02 11:26:04;;;;;;;2.65;0.85;;;24.70;67.00;;;;;;5110082;27;20552;-86
2022/09/02 11:28:48;;;;;;;3.38;0.65;;;24.80;66.40;;;;;;5111514;27;20035;-90
2022/09/02 11:31:31;;;;;;;1.30;0.52;;;24.80;64.00;;;;;;5111646;27;20485;-91
2022/09/02 11:34:35;;;;;;;1.35;0.60;;;24.90;64.60;;;;;;5096932;27;20051;-89
2022/09/02 11:37:18;;;;;;;1.48;0.68;;;25.00;62.00;;;;;;5096323;27;20421;-90
2022/09/02 11:39:56;;;;;;;2.95;0.50;;;25.10;63.20;;;;;;5094579;27;20074;-89
2022/09/02 11:42:52;;;;;;;2.08;0.60;;;25.20;61.40;;;;;;5111678;27;20133;-90
2022/09/02 11:45:30;;;;;;;2.58;0.60;;;25.20;60.50;;;;;;5091844;27;20468;-91
2022/09/02 11:48:28;;;;;;;1.38;0.68;;;25.20;61.50;;;;;;5110519;27;20074;-86
2022/09/02 11:51:16;;;;;;;8.70;0.77;;;25.30;60.70;;;;;;5094532;27;20047;-91
2022/09/02 11:53:44;;;;;;;4.38;0.65;;;25.30;62.10;;;;;;5092558;27;20050;-90
2022/09/02 11:56:10;;;;;;;4.45;0.90;;;25.40;59.60;;;;;;5109562;27;20104;-82
2022/09/02 11:58:45;;;;;;;1.70;0.50;;;25.40;59.30;;;;;;5109745;27;20043;-88
2022/09/02 12:01:14;;;;;;;2.33;0.70;;;25.50;56.40;;;;;;5092980;27;20046;-87
2022/09/02 12:03:46;;;;;;;5.20;1.17;;;25.50;57.90;;;;;;5109725;27;20047;-87
2022/09/02 12:06:19;;;;;;;2.08;0.60;;;25.50;60.80;;;;;;5109601;27;20039;-87
2022/09/02 12:08:47;;;;;;;2.13;0.50;;;25.70;59.90;;;;;;5093134;27;20039;-89
2022/09/02 12:11:38;;;;;;;3.92;0.70;;;25.80;59.20;;;;;;5110614;27;20050;-91
2022/09/02 12:14:05;;;;;;;2.47;0.70;;;25.80;57.80;;;;;;5093553;27;20088;-83
2022/09/02 12:16:39;;;;;;;3.63;0.88;;;25.80;58.60;;;;;;5095315;27;20466;-88
2022/09/02 12:19:07;;;;;;;2.00;0.60;;;25.90;56.70;;;;;;5094113;27;20043;-91
2022/09/02 12:21:37;;;;;;;1.35;0.60;;;26.00;57.10;;;;;;5094303;27;20047;-91
2022/09/02 12:24:18;;;;;;;1.75;0.70;;;26.00;56.70;;;;;;5094061;27;20478;-91
2022/09/02 12:26:44;;;;;;;1.08;0.57;;;25.90;55.50;;;;;;5093219;27;20134;-87
2022/09/02 12:29:18;;;;;;;1.42;0.57;;;26.00;56.60;;;;;;5093946;27;20142;-94
2022/09/02 12:31:46;;;;;;;1.17;0.73;;;26.10;56.70;;;;;;5093876;27;20466;-89
2022/09/02 12:34:50;;;;;;;5.40;0.75;;;26.20;55.60;;;;;;5080858;27;20053;-95
2022/09/02 12:37:52;;;;;;;1.48;0.50;;;26.40;53.60;;;;;;5106076;27;20050;-92
2022/09/02 12:40:25;;;;;;;3.13;0.60;;;26.80;50.80;;;;;;5041386;27;20062;-92
2022/09/02 12:42:52;;;;;;;6.15;0.60;;;26.60;54.40;;;;;;5093460;27;20043;-89
2022/09/02 12:45:29;;;;;;;1.33;0.50;;;26.70;52.80;;;;;;5093938;27;20496;-91
2022/09/02 12:48:14;;;;;;;4.20;1.30;;;26.80;52.10;;;;;;5094477;27;20440;-92
2022/09/02 12:50:44;;;;;;;1.42;0.50;;;26.80;52.00;;;;;;5093633;27;20039;-86
2022/09/02 12:53:33;;;;;;;1.00;0.40;;;26.80;52.70;;;;;;5109666;27;20051;-89
2022/09/02 12:56:15;;;;;;;4.35;0.60;;;26.80;51.90;;;;;;5110714;27;20520;-94
2022/09/02 12:58:46;;;;;;;2.40;0.50;;;26.90;52.40;;;;;;5119342;27;20039;-91
2022/09/02 13:02:03;;;;;;;3.88;0.60;;;27.00;52.80;;;;;;5092618;27;20049;-93
2022/09/02 13:04:47;;;;;;;3.47;0.50;;;27.10;50.70;;;;;;5055986;27;20055;-91
2022/09/02 13:07:58;;;;;;;7.50;0.75;;;27.30;51.70;;;;;;5110654;28;20050;-92
2022/09/02 13:10:54;;;;;;;4.55;0.70;;;27.30;49.50;;;;;;5083918;28;20069;-88